createdAt,value
2022-11-16T00:04:17.480Z,89.74
2022-11-16T00:09:23.226Z,89.86
2022-11-16T00:14:28.576Z,89.74
2022-11-16T00:19:31.663Z,90.01
2022-11-16T00:24:34.882Z,90.16
2022-11-16T00:29:37.520Z,89.05
2022-11-16T00:34:40.297Z,89.11
2022-11-16T00:39:43.071Z,88.21
2022-11-16T00:44:48.334Z,88.14
2022-11-16T00:49:51.108Z,87.88
2022-11-16T00:54:53.761Z,87.36
2022-11-16T00:59:56.477Z,86.95
2022-11-16T01:04:59.160Z,86.36
2022-11-16T01:10:03.991Z,86.36
2022-11-16T01:15:11.775Z,86.11
2022-11-16T01:20:18.293Z,86.77
2022-11-16T01:25:21.179Z,86.01
2022-11-16T01:30:24.479Z,86.25
2022-11-16T01:35:36.725Z,87.03
2022-11-16T01:40:39.832Z,87.28
2022-11-16T01:45:43.181Z,86.89
2022-11-16T01:50:50.023Z,86.23
2022-11-16T01:55:53.444Z,85.74
2022-11-16T02:01:10.892Z,85.69
2022-11-16T02:06:39.207Z,85.33
2022-11-16T02:12:07.731Z,85.54
2022-11-16T02:17:37.670Z,85.72
2022-11-16T02:23:27.014Z,85.28
2022-11-16T02:28:51.190Z,85.27
2022-11-16T02:33:56.311Z,85.39
2022-11-16T02:39:07.760Z,85.67
2022-11-16T02:44:21.015Z,86.12
2022-11-16T02:49:26.540Z,86.73
2022-11-16T02:54:29.099Z,86.21
2022-11-16T02:59:41.850Z,86.13
2022-11-16T03:04:46.939Z,86.88
2022-11-16T03:09:51.243Z,86.92
2022-11-16T03:14:59.110Z,86.99
2022-11-16T03:20:09.660Z,86.25
2022-11-16T03:25:20.256Z,86.01
2022-11-16T03:30:31.998Z,86.33
2022-11-16T03:35:43.826Z,86.55
2022-11-16T03:40:47.751Z,86.80
2022-11-16T03:45:50.930Z,86.73
2022-11-16T03:50:54.248Z,86.31
2022-11-16T03:55:57.243Z,86.30
2022-11-16T04:01:00.320Z,86.67
2022-11-16T04:06:22.824Z,86.32
2022-11-16T04:11:44.012Z,86.96
2022-11-16T04:17:05.429Z,87.17
2022-11-16T04:22:36.849Z,86.57
2022-11-16T04:27:58.437Z,87.17
2022-11-16T04:33:19.545Z,87.88
2022-11-16T04:38:22.355Z,87.58
2022-11-16T04:43:24.920Z,87.30
2022-11-16T04:48:28.602Z,86.98
2022-11-16T04:53:32.110Z,87.54
2022-11-16T04:58:43.607Z,88.24
2022-11-16T05:03:46.431Z,88.00
2022-11-16T05:08:50.965Z,88.39
2022-11-16T05:13:53.641Z,87.51
2022-11-16T05:19:15.083Z,87.76
2022-11-16T05:24:35.851Z,87.45
2022-11-16T05:29:40.328Z,87.16
2022-11-16T05:34:44.067Z,85.78
2022-11-16T05:39:50.202Z,85.83
2022-11-16T05:44:54.908Z,85.71
2022-11-16T05:49:57.549Z,85.90
2022-11-16T05:55:02.307Z,86.65
2022-11-16T06:00:09.323Z,87.02
2022-11-16T06:05:17.808Z,86.38
2022-11-16T06:10:22.308Z,86.64
2022-11-16T06:15:26.993Z,85.80
2022-11-16T06:20:29.570Z,85.83
2022-11-16T06:25:33.384Z,85.27
2022-11-16T06:30:38.355Z,84.97
2022-11-16T06:35:42.901Z,83.94
2022-11-16T06:40:50.876Z,84.11
2022-11-16T06:45:57.107Z,83.50
2022-11-16T06:51:00.472Z,83.89
2022-11-16T06:56:06.163Z,84.25
2022-11-16T07:01:14.432Z,84.01
2022-11-16T07:06:19.693Z,84.07
2022-11-16T07:11:22.584Z,83.45
2022-11-16T07:16:25.490Z,83.91
2022-11-16T07:21:32.763Z,82.89
2022-11-16T07:26:38.343Z,82.09
2022-11-16T07:31:45.486Z,81.23
2022-11-16T07:37:08.472Z,80.80
2022-11-16T07:42:11.839Z,79.59
2022-11-16T07:47:40.733Z,77.67
2022-11-16T07:52:48.722Z,76.05
2022-11-16T07:57:55.213Z,75.72
2022-11-16T08:02:57.927Z,75.82
2022-11-16T08:08:01.780Z,75.22
2022-11-16T08:13:05.903Z,74.70
2022-11-16T08:18:08.655Z,74.08
2022-11-16T08:23:11.255Z,74.25
2022-11-16T08:28:14.626Z,72.58
2022-11-16T08:33:19.658Z,71.51
2022-11-16T08:38:22.570Z,70.51
2022-11-16T08:43:25.945Z,70.26
2022-11-16T08:48:29.111Z,69.45
2022-11-16T08:53:31.847Z,68.20
2022-11-16T08:58:36.170Z,67.03
2022-11-16T09:03:39.185Z,66.52
2022-11-16T09:08:43.625Z,65.22
2022-11-16T09:13:47.885Z,64.89
2022-11-16T09:18:51.917Z,63.63
2022-11-16T09:23:56.480Z,62.57
2022-11-16T09:29:00.852Z,64.89
2022-11-16T09:34:04.535Z,64.23
2022-11-16T09:44:38.791Z,61.99
2022-11-16T09:49:47.502Z,65.19
2022-11-16T09:54:53.131Z,66.33
2022-11-16T10:00:01.175Z,66.76
2022-11-16T10:05:20.678Z,68.53
2022-11-16T10:10:39.639Z,68.68
2022-11-16T10:16:00.461Z,68.85
2022-11-16T10:21:11.650Z,67.63
2022-11-16T10:26:21.116Z,67.88
2022-11-16T10:31:57.084Z,68.27
2022-11-16T10:37:07.858Z,68.53
2022-11-16T10:42:35.069Z,68.19
2022-11-16T10:48:06.321Z,67.86
2022-11-16T10:53:14.730Z,67.06
2022-11-16T10:58:17.294Z,66.82
2022-11-16T11:03:32.806Z,66.62
2022-11-16T11:08:35.584Z,64.70
2022-11-16T11:13:38.178Z,65.31
2022-11-16T11:18:40.756Z,65.47
2022-11-16T11:23:50.893Z,65.27
2022-11-16T11:28:54.092Z,65.16
2022-11-16T11:34:14.236Z,64.73
2022-11-16T11:39:16.729Z,64.35
2022-11-16T11:44:20.520Z,62.89
2022-11-16T11:49:36.148Z,62.21
2022-11-16T11:54:46.012Z,62.41
2022-11-16T11:59:52.389Z,62.61
2022-11-16T12:04:57.699Z,62.00
2022-11-16T12:10:17.744Z,61.54
2022-11-16T12:15:26.176Z,62.17
2022-11-16T12:20:52.841Z,61.78
2022-11-16T12:25:58.092Z,62.32
2022-11-16T12:31:38.076Z,63.07
2022-11-16T12:36:59.154Z,62.91
2022-11-16T12:42:24.826Z,63.22
2022-11-16T12:47:56.479Z,63.57
2022-11-16T12:53:08.531Z,63.86
2022-11-16T12:58:48.774Z,64.24
2022-11-16T13:03:56.411Z,64.83
2022-11-16T13:09:06.916Z,65.33
2022-11-16T13:14:36.618Z,65.90
2022-11-16T13:19:42.367Z,66.17
2022-11-16T13:24:47.504Z,66.42
2022-11-16T13:30:17.938Z,67.28
2022-11-16T13:35:21.079Z,67.56
2022-11-16T13:40:40.690Z,67.20
2022-11-16T13:45:51.497Z,67.14
2022-11-16T13:50:56.323Z,67.53
2022-11-16T13:56:01.956Z,68.32
2022-11-16T14:01:10.832Z,68.25
2022-11-16T14:06:13.388Z,69.14
2022-11-16T14:11:36.830Z,69.28
2022-11-16T14:16:45.166Z,69.63
2022-11-16T14:21:59.515Z,69.74
2022-11-16T14:27:30.752Z,69.57
2022-11-16T14:32:42.566Z,70.13
2022-11-16T14:37:45.381Z,70.33
2022-11-16T14:43:16.064Z,70.44
2022-11-16T14:48:21.419Z,70.53
2022-11-16T14:53:26.443Z,70.77
2022-11-16T14:58:29.265Z,71.87
2022-11-16T15:03:38.476Z,71.67
2022-11-16T15:08:48.957Z,72.14
2022-11-16T15:13:51.682Z,72.34
2022-11-16T15:19:01.832Z,72.60
2022-11-16T15:29:27.249Z,72.53
2022-11-16T15:34:31.394Z,73.39
2022-11-16T15:39:36.142Z,73.77
2022-11-16T15:44:39.591Z,73.73
2022-11-16T15:49:43.854Z,73.84
2022-11-16T15:55:03.917Z,74.31
2022-11-16T16:00:07.028Z,74.81
2022-11-16T16:05:39.064Z,75.01
2022-11-16T16:10:41.521Z,75.92
2022-11-16T16:15:44.080Z,75.00
2022-11-16T16:20:49.056Z,75.43
2022-11-16T16:25:51.627Z,75.23
2022-11-16T16:30:54.312Z,75.56
2022-11-16T16:35:57.022Z,76.34
2022-11-16T16:41:04.039Z,75.96
2022-11-16T16:46:06.924Z,76.21
2022-11-16T16:51:12.063Z,76.30
2022-11-16T16:56:16.822Z,76.56
2022-11-16T17:01:19.467Z,76.48
2022-11-16T17:06:22.355Z,76.25
2022-11-16T17:11:25.248Z,76.34
2022-11-16T17:16:27.811Z,76.38
2022-11-16T17:21:31.204Z,76.49
2022-11-16T17:26:33.893Z,76.80
2022-11-16T17:32:03.883Z,76.80
2022-11-16T17:37:06.969Z,76.44
2022-11-16T17:42:09.696Z,76.55
2022-11-16T17:47:12.464Z,76.96
2022-11-16T17:52:15.531Z,77.00
2022-11-16T17:57:24.198Z,77.32
2022-11-16T18:02:26.864Z,77.21
2022-11-16T18:07:32.791Z,77.44
2022-11-16T18:12:35.375Z,77.27
2022-11-16T18:17:37.964Z,77.41
2022-11-16T18:22:41.313Z,77.49
2022-11-16T18:27:43.919Z,77.43
2022-11-16T18:32:47.375Z,77.71
2022-11-16T18:37:50.383Z,77.64
2022-11-16T18:42:52.936Z,77.93
2022-11-16T18:47:55.513Z,77.87
2022-11-16T18:52:58.291Z,78.00
2022-11-16T18:58:01.541Z,78.08
2022-11-16T19:03:09.882Z,78.31
2022-11-16T19:08:14.773Z,78.27
2022-11-16T19:13:17.922Z,78.07
2022-11-16T19:18:27.149Z,78.62
2022-11-16T19:23:29.716Z,78.43
2022-11-16T19:28:42.837Z,79.22
2022-11-16T19:33:45.923Z,78.72
2022-11-16T19:38:49.149Z,79.05
2022-11-16T19:43:57.105Z,79.00
2022-11-16T19:49:00.781Z,78.82
2022-11-16T19:54:03.649Z,78.77
2022-11-16T19:59:06.487Z,78.61
2022-11-16T20:04:09.441Z,78.44
2022-11-16T20:09:12.277Z,78.94
2022-11-16T20:14:15.540Z,79.16
2022-11-16T20:19:19.329Z,79.30
2022-11-16T20:24:22.105Z,78.80
2022-11-16T20:29:24.717Z,79.15
2022-11-16T20:34:27.341Z,79.31
2022-11-16T20:39:29.866Z,78.99
2022-11-16T20:44:32.734Z,78.90
2022-11-16T20:49:35.463Z,78.83
2022-11-16T20:54:38.012Z,79.07
2022-11-16T20:59:40.668Z,78.99
2022-11-16T21:04:43.187Z,79.18
2022-11-16T21:10:15.066Z,78.54
2022-11-16T21:15:17.812Z,79.06
2022-11-16T21:20:27.449Z,79.14
2022-11-16T21:25:30.865Z,79.34
2022-11-16T21:30:33.440Z,79.08
2022-11-16T21:35:36.162Z,79.40
2022-11-16T21:40:41.012Z,79.56
2022-11-16T21:45:45.206Z,80.40
2022-11-16T21:50:47.853Z,80.66
2022-11-16T21:55:50.458Z,80.49
2022-11-16T22:00:57.458Z,80.02
2022-11-16T22:06:21.252Z,79.93
2022-11-16T22:11:23.802Z,79.71
2022-11-16T22:16:26.986Z,79.29
2022-11-16T22:21:29.539Z,78.75
2022-11-16T22:26:32.126Z,79.25
2022-11-16T22:31:36.174Z,79.82
2022-11-16T22:36:38.812Z,79.37
2022-11-16T22:41:41.947Z,79.52
2022-11-16T22:46:44.755Z,79.30
2022-11-16T22:51:47.444Z,79.25
2022-11-16T22:56:50.044Z,79.06
2022-11-16T23:01:52.578Z,79.83
2022-11-16T23:06:55.225Z,79.84
2022-11-16T23:12:16.510Z,79.69
2022-11-16T23:17:19.056Z,79.37
2022-11-16T23:22:40.599Z,79.42
2022-11-16T23:28:04.770Z,79.69
2022-11-16T23:33:16.277Z,80.04
2022-11-16T23:38:19.053Z,80.15
2022-11-16T23:43:40.044Z,79.88
2022-11-16T23:48:42.552Z,79.27
2022-11-16T23:53:45.621Z,79.07
2022-11-16T23:58:48.696Z,79.31
